Cerrillos, New Mexico
Current Conditions -  °F | °C
As of 7:53 PM on Monday 20 Oct 2014 (Local Time) from KSAF Reporting Station
Heavy Rain Heavy Rain  
Wind Chill: 56°   Ceiling: 5500
Heat Index: 56°   Visibility: 3mi
Dew Point: 45°   Wind: 6mph
Humidity: 67%   Direction: 240°WSW
Pressure: 30.21"   Gusts: NA
Location:  35.44°N, 106.13°W
Report Text: KSAF 210153Z 24005KT 3SM +RA FEW042 BKN055 OVC070 13/07 A3021 RMK AO2 RAB25 SLP179 P0008 T01330072
Loading
Personal Weather Stations






























Interactive Weather Map
Tropical Storm Tracking
New forecast layout! Learn more

10-Day Weather Forecast

Advertisements
Track Severe Weather on mobile